sensor_id;sensor_type;location;lat;lon;timestamp;pressure;altitude;pressure_sealevel;temperature;humidity
73455;BME280;61690;51.824;6.306;2023-03-14T00:01:14;98872.91;;;18.92;48.78
73455;BME280;61690;51.824;6.306;2023-03-14T00:03:39;98862.25;;;18.93;48.71
73455;BME280;61690;51.824;6.306;2023-03-14T00:06:06;98860.75;;;18.91;48.65
73455;BME280;61690;51.824;6.306;2023-03-14T00:08:31;98854.78;;;18.89;48.68
73455;BME280;61690;51.824;6.306;2023-03-14T00:10:57;98849.50;;;18.89;48.60
73455;BME280;61690;51.824;6.306;2023-03-14T00:13:25;98844.09;;;18.90;49.01
73455;BME280;61690;51.824;6.306;2023-03-14T00:15:50;98833.69;;;18.89;49.07
73455;BME280;61690;51.824;6.306;2023-03-14T00:18:15;98838.97;;;18.89;48.87
73455;BME280;61690;51.824;6.306;2023-03-14T00:20:41;98830.38;;;18.87;48.53
73455;BME280;61690;51.824;6.306;2023-03-14T00:23:06;98831.38;;;18.86;48.87
73455;BME280;61690;51.824;6.306;2023-03-14T00:25:31;98821.66;;;18.86;48.45
73455;BME280;61690;51.824;6.306;2023-03-14T00:27:57;98824.97;;;18.88;48.68
73455;BME280;61690;51.824;6.306;2023-03-14T00:30:22;98824.31;;;18.86;48.33
73455;BME280;61690;51.824;6.306;2023-03-14T00:32:47;98828.75;;;18.86;48.56
73455;BME280;61690;51.824;6.306;2023-03-14T00:35:13;98827.94;;;18.85;48.70
73455;BME280;61690;51.824;6.306;2023-03-14T00:37:38;98814.91;;;18.84;48.33
73455;BME280;61690;51.824;6.306;2023-03-14T00:40:04;98812.13;;;18.85;48.58
73455;BME280;61690;51.824;6.306;2023-03-14T00:42:31;98812.94;;;18.86;48.10
73455;BME280;61690;51.824;6.306;2023-03-14T00:44:57;98811.47;;;18.83;48.20
73455;BME280;61690;51.824;6.306;2023-03-14T00:47:22;98814.91;;;18.84;48.23
73455;BME280;61690;51.824;6.306;2023-03-14T00:49:48;98826.25;;;18.84;48.05
73455;BME280;61690;51.824;6.306;2023-03-14T00:52:13;98825.44;;;18.84;48.07
73455;BME280;61690;51.824;6.306;2023-03-14T00:54:38;98832.53;;;18.83;48.26
73455;BME280;61690;51.824;6.306;2023-03-14T00:57:03;98850.13;;;18.83;48.50
73455;BME280;61690;51.824;6.306;2023-03-14T00:59:29;98852.91;;;18.81;48.17
73455;BME280;61690;51.824;6.306;2023-03-14T01:01:54;98839.72;;;18.81;47.98
73455;BME280;61690;51.824;6.306;2023-03-14T01:04:19;98845.13;;;18.79;48.02
73455;BME280;61690;51.824;6.306;2023-03-14T01:06:44;98840.72;;;18.80;48.05
73455;BME280;61690;51.824;6.306;2023-03-14T01:09:10;98845.13;;;18.79;48.09
73455;BME280;61690;51.824;6.306;2023-03-14T01:11:35;98847.78;;;18.79;47.93
73455;BME280;61690;51.824;6.306;2023-03-14T01:14:02;98836.28;;;18.80;47.94
73455;BME280;61690;51.824;6.306;2023-03-14T01:16:29;98831.13;;;18.79;47.84
73455;BME280;61690;51.824;6.306;2023-03-14T01:18:55;98840.16;;;18.76;48.09
73455;BME280;61690;51.824;6.306;2023-03-14T01:21:25;98837.53;;;18.76;48.00
73455;BME280;61690;51.824;6.306;2023-03-14T01:23:52;98829.63;;;18.76;48.04
73455;BME280;61690;51.824;6.306;2023-03-14T01:26:19;98835.03;;;18.75;48.16
73455;BME280;61690;51.824;6.306;2023-03-14T01:28:46;98835.03;;;18.75;48.27
73455;BME280;61690;51.824;6.306;2023-03-14T01:31:12;98831.59;;;18.74;47.97
73455;BME280;61690;51.824;6.306;2023-03-14T01:33:38;98838.50;;;18.75;47.94
73455;BME280;61690;51.824;6.306;2023-03-14T01:36:05;98839.63;;;18.73;47.75
73455;BME280;61690;51.824;6.306;2023-03-14T01:38:32;98831.06;;;18.71;48.19
73455;BME280;61690;51.824;6.306;2023-03-14T01:40:58;98830.09;;;18.72;47.78
73455;BME280;61690;51.824;6.306;2023-03-14T01:43:24;98837.16;;;18.71;47.82
73455;BME280;61690;51.824;6.306;2023-03-14T01:48:47;98823.00;;;18.72;48.04
73455;BME280;61690;51.824;6.306;2023-03-14T01:51:21;98816.06;;;18.71;47.91
73455;BME280;61690;51.824;6.306;2023-03-14T01:53:50;98809.19;;;18.70;47.79
73455;BME280;61690;51.824;6.306;2023-03-14T01:56:17;98808.50;;;18.68;47.98
73455;BME280;61690;51.824;6.306;2023-03-14T01:58:45;98804.72;;;18.71;47.98
73455;BME280;61690;51.824;6.306;2023-03-14T02:01:14;98801.28;;;18.70;47.93
73455;BME280;61690;51.824;6.306;2023-03-14T02:03:47;98786.59;;;18.68;47.58
73455;BME280;61690;51.824;6.306;2023-03-14T02:06:17;98783.81;;;18.69;47.57
73455;BME280;61690;51.824;6.306;2023-03-14T02:08:44;98780.34;;;18.69;47.60
73455;BME280;61690;51.824;6.306;2023-03-14T02:11:13;98783.94;;;18.68;47.55
73455;BME280;61690;51.824;6.306;2023-03-14T02:13:38;98794.66;;;18.66;48.00
73455;BME280;61690;51.824;6.306;2023-03-14T02:16:04;98799.75;;;18.68;47.47
73455;BME280;61690;51.824;6.306;2023-03-14T02:18:30;98793.66;;;18.67;47.63
73455;BME280;61690;51.824;6.306;2023-03-14T02:21:08;98799.25;;;18.64;47.73
73455;BME280;61690;51.824;6.306;2023-03-14T02:27:12;98794.00;;;18.64;47.86
73455;BME280;61690;51.824;6.306;2023-03-14T02:29:18;98799.25;;;18.64;47.87
73455;BME280;61690;51.824;6.306;2023-03-14T02:31:43;98807.31;;;18.63;47.73
73455;BME280;61690;51.824;6.306;2023-03-14T02:34:08;98791.50;;;18.63;47.97
73455;BME280;61690;51.824;6.306;2023-03-14T02:36:34;98794.94;;;18.63;47.48
73455;BME280;61690;51.824;6.306;2023-03-14T02:39:07;98800.22;;;18.63;47.64
73455;BME280;61690;51.824;6.306;2023-03-14T02:41:34;98791.66;;;18.61;47.83
73455;BME280;61690;51.824;6.306;2023-03-14T02:43:59;98795.09;;;18.61;47.29
73455;BME280;61690;51.824;6.306;2023-03-14T02:46:25;98802.84;;;18.63;47.60
73455;BME280;61690;51.824;6.306;2023-03-14T02:48:58;98803.00;;;18.61;47.31
73455;BME280;61690;51.824;6.306;2023-03-14T02:51:27;98795.25;;;18.60;47.91
73455;BME280;61690;51.824;6.306;2023-03-14T02:53:53;98795.25;;;18.60;47.79
73455;BME280;61690;51.824;6.306;2023-03-14T02:56:18;98791.78;;;18.59;47.44
73455;BME280;61690;51.824;6.306;2023-03-14T02:58:44;98787.53;;;18.58;47.63
73455;BME280;61690;51.824;6.306;2023-03-14T03:01:09;98793.59;;;18.59;47.36
73455;BME280;61690;51.824;6.306;2023-03-14T03:03:34;98798.06;;;18.58;47.34
73455;BME280;61690;51.824;6.306;2023-03-14T03:06:00;98790.16;;;18.58;47.24
73455;BME280;61690;51.824;6.306;2023-03-14T03:08:26;98787.66;;;18.57;47.38
73455;BME280;61690;51.824;6.306;2023-03-14T03:10:52;98787.53;;;18.58;47.70
73455;BME280;61690;51.824;6.306;2023-03-14T03:13:18;98791.25;;;18.56;47.35
73455;BME280;61690;51.824;6.306;2023-03-14T03:15:44;98792.78;;;18.58;47.47
73455;BME280;61690;51.824;6.306;2023-03-14T03:18:09;98798.19;;;18.57;47.34
73455;BME280;61690;51.824;6.306;2023-03-14T03:20:35;98786.84;;;18.56;47.17
73455;BME280;61690;51.824;6.306;2023-03-14T03:23:01;98794.75;;;18.56;47.30
73455;BME280;61690;51.824;6.306;2023-03-14T03:25:26;98793.91;;;18.56;47.34
73455;BME280;61690;51.824;6.306;2023-03-14T03:27:52;98800.97;;;18.55;47.69
73455;BME280;61690;51.824;6.306;2023-03-14T03:30:18;98791.25;;;18.56;47.23
73455;BME280;61690;51.824;6.306;2023-03-14T03:32:43;98792.13;;;18.56;47.41
73455;BME280;61690;51.824;6.306;2023-03-14T03:35:09;98803.75;;;18.54;47.59
73455;BME280;61690;51.824;6.306;2023-03-14T03:37:34;98803.75;;;18.54;47.60
73455;BME280;61690;51.824;6.306;2023-03-14T03:40:00;98803.91;;;18.52;47.29
73455;BME280;61690;51.824;6.306;2023-03-14T03:42:26;98803.06;;;18.52;47.27
73455;BME280;61690;51.824;6.306;2023-03-14T03:44:52;98801.44;;;18.51;47.58
73455;BME280;61690;51.824;6.306;2023-03-14T03:47:17;98798.81;;;18.51;47.53
73455;BME280;61690;51.824;6.306;2023-03-14T03:49:42;98802.41;;;18.50;47.14
73455;BME280;61690;51.824;6.306;2023-03-14T03:52:08;98788.28;;;18.51;47.50
73455;BME280;61690;51.824;6.306;2023-03-14T03:54:34;98783.97;;;18.50;47.22
73455;BME280;61690;51.824;6.306;2023-03-14T03:56:59;98786.59;;;18.50;47.27
73455;BME280;61690;51.824;6.306;2023-03-14T03:59:25;98787.66;;;18.57;47.34
73455;BME280;61690;51.824;6.306;2023-03-14T04:01:50;98781.50;;;18.66;46.70
73455;BME280;61690;51.824;6.306;2023-03-14T04:04:16;98776.94;;;18.76;46.49
73455;BME280;61690;51.824;6.306;2023-03-14T04:06:41;98778.75;;;18.94;46.25
73455;BME280;61690;51.824;6.306;2023-03-14T04:09:08;98775.38;;;19.10;46.02
73455;BME280;61690;51.824;6.306;2023-03-14T04:11:33;98770.53;;;19.23;45.34
73455;BME280;61690;51.824;6.306;2023-03-14T04:13:59;98766.94;;;19.32;45.21
73455;BME280;61690;51.824;6.306;2023-03-14T04:16:25;98765.66;;;19.36;45.48
73455;BME280;61690;51.824;6.306;2023-03-14T04:18:50;98768.50;;;19.43;45.37
73455;BME280;61690;51.824;6.306;2023-03-14T04:21:16;98760.63;;;19.51;44.98
73455;BME280;61690;51.824;6.306;2023-03-14T04:23:42;98757.53;;;19.56;45.17
73455;BME280;61690;51.824;6.306;2023-03-14T04:26:07;98756.38;;;19.58;45.08
73455;BME280;61690;51.824;6.306;2023-03-14T04:28:32;98758.38;;;19.65;45.09
73455;BME280;61690;51.824;6.306;2023-03-14T04:30:58;98762.47;;;19.67;44.80
73455;BME280;61690;51.824;6.306;2023-03-14T04:33:23;98755.25;;;19.69;44.86
73455;BME280;61690;51.824;6.306;2023-03-14T04:35:52;98759.03;;;19.67;45.03
73455;BME280;61690;51.824;6.306;2023-03-14T04:38:17;98753.75;;;19.67;44.95
73455;BME280;61690;51.824;6.306;2023-03-14T04:40:43;98759.03;;;19.67;44.82
73455;BME280;61690;51.824;6.306;2023-03-14T04:43:10;98744.03;;;19.67;45.13
73455;BME280;61690;51.824;6.306;2023-03-14T04:45:35;98739.75;;;19.66;45.03
73455;BME280;61690;51.824;6.306;2023-03-14T04:48:01;98735.28;;;19.67;45.05
73455;BME280;61690;51.824;6.306;2023-03-14T04:50:26;98739.91;;;19.65;45.14
73455;BME280;61690;51.824;6.306;2023-03-14T04:52:52;98743.53;;;19.64;45.02
73455;BME280;61690;51.824;6.306;2023-03-14T04:55:17;98740.22;;;19.62;45.30
73455;BME280;61690;51.824;6.306;2023-03-14T04:57:42;98736.25;;;19.57;45.24
73455;BME280;61690;51.824;6.306;2023-03-14T05:00:08;98742.38;;;19.58;45.13
73455;BME280;61690;51.824;6.306;2023-03-14T05:02:34;98733.94;;;19.54;45.17
73455;BME280;61690;51.824;6.306;2023-03-14T05:05:00;98739.53;;;19.51;45.58
73455;BME280;61690;51.824;6.306;2023-03-14T05:07:25;98747.59;;;19.50;45.38
73455;BME280;61690;51.824;6.306;2023-03-14T05:09:50;98743.63;;;19.46;45.41
73455;BME280;61690;51.824;6.306;2023-03-14T05:12:15;98734.06;;;19.45;45.32
73455;BME280;61690;51.824;6.306;2023-03-14T05:14:41;98736.03;;;19.43;45.21
73455;BME280;61690;51.824;6.306;2023-03-14T05:17:06;98743.09;;;19.42;45.65
73455;BME280;61690;51.824;6.306;2023-03-14T05:19:32;98737.03;;;19.50;46.00
73455;BME280;61690;51.824;6.306;2023-03-14T05:21:57;98738.56;;;19.52;45.55
73455;BME280;61690;51.824;6.306;2023-03-14T05:24:22;98736.53;;;19.46;45.97
73455;BME280;61690;51.824;6.306;2023-03-14T05:26:47;98731.91;;;19.40;45.79
73455;BME280;61690;51.824;6.306;2023-03-14T05:29:13;98728.28;;;19.41;45.62
73455;BME280;61690;51.824;6.306;2023-03-14T05:31:38;98723.84;;;19.42;45.92
73455;BME280;61690;51.824;6.306;2023-03-14T05:34:03;98721.34;;;19.40;45.62
73455;BME280;61690;51.824;6.306;2023-03-14T05:36:29;98723.66;;;19.35;46.24
73455;BME280;61690;51.824;6.306;2023-03-14T05:38:54;98726.31;;;19.43;45.97
73455;BME280;61690;51.824;6.306;2023-03-14T05:41:19;98725.97;;;19.46;45.96
73455;BME280;61690;51.824;6.306;2023-03-14T05:43:45;98731.91;;;19.48;46.11
73455;BME280;61690;51.824;6.306;2023-03-14T05:46:10;98724.69;;;19.50;46.24
73455;BME280;61690;51.824;6.306;2023-03-14T05:48:35;98735.59;;;19.55;46.58
73455;BME280;61690;51.824;6.306;2023-03-14T05:51:00;98736.44;;;19.56;46.72
73455;BME280;61690;51.824;6.306;2023-03-14T05:53:26;98734.75;;;19.55;46.98
73455;BME280;61690;51.824;6.306;2023-03-14T05:55:52;98732.28;;;19.53;47.16
73455;BME280;61690;51.824;6.306;2023-03-14T05:58:18;98731.47;;;19.53;47.27
73455;BME280;61690;51.824;6.306;2023-03-14T06:00:43;98730.63;;;19.52;47.19
73455;BME280;61690;51.824;6.306;2023-03-14T06:03:08;98723.69;;;19.51;47.45
73455;BME280;61690;51.824;6.306;2023-03-14T06:05:33;98723.06;;;19.57;47.43
73455;BME280;61690;51.824;6.306;2023-03-14T06:07:59;98724.06;;;19.56;47.31
73455;BME280;61690;51.824;6.306;2023-03-14T06:10:24;98728.66;;;19.54;47.77
73455;BME280;61690;51.824;6.306;2023-03-14T06:12:49;98727.81;;;19.54;47.47
73455;BME280;61690;51.824;6.306;2023-03-14T06:15:15;98726.56;;;19.66;47.87
73455;BME280;61690;51.824;6.306;2023-03-14T06:17:40;98719.44;;;19.58;47.76
73455;BME280;61690;51.824;6.306;2023-03-14T06:20:06;98730.94;;;19.49;48.56
73455;BME280;61690;51.824;6.306;2023-03-14T06:22:31;98717.28;;;19.54;48.48
73455;BME280;61690;51.824;6.306;2023-03-14T06:24:56;98732.28;;;19.53;48.62
73455;BME280;61690;51.824;6.306;2023-03-14T06:27:22;98715.78;;;19.51;48.46
73455;BME280;61690;51.824;6.306;2023-03-14T06:29:47;98715.53;;;19.71;48.04
73455;BME280;61690;51.824;6.306;2023-03-14T06:32:12;98709.69;;;20.02;47.34
73455;BME280;61690;51.824;6.306;2023-03-14T06:34:38;98708.72;;;20.27;47.14
73455;BME280;61690;51.824;6.306;2023-03-14T06:37:04;98703.09;;;20.47;46.52
73455;BME280;61690;51.824;6.306;2023-03-14T06:39:29;98712.38;;;20.67;46.23
73455;BME280;61690;51.824;6.306;2023-03-14T06:41:55;98721.25;;;20.58;46.11
73455;BME280;61690;51.824;6.306;2023-03-14T06:44:20;98718.63;;;20.33;46.71
73455;BME280;61690;51.824;6.306;2023-03-14T06:46:45;98712.00;;;20.13;47.04
73455;BME280;61690;51.824;6.306;2023-03-14T06:49:11;98714.94;;;20.02;47.52
73455;BME280;61690;51.824;6.306;2023-03-14T06:51:36;98724.53;;;20.11;47.85
73455;BME280;61690;51.824;6.306;2023-03-14T06:54:02;98722.41;;;20.23;47.33
73455;BME280;61690;51.824;6.306;2023-03-14T06:56:27;98724.22;;;20.14;47.93
73455;BME280;61690;51.824;6.306;2023-03-14T06:58:52;98721.44;;;20.15;48.01
73455;BME280;61690;51.824;6.306;2023-03-14T07:01:24;98724.22;;;20.14;48.06
73455;BME280;61690;51.824;6.306;2023-03-14T07:03:50;98722.41;;;20.14;47.86
73455;BME280;61690;51.824;6.306;2023-03-14T07:06:15;98731.63;;;20.02;48.41
73455;BME280;61690;51.824;6.306;2023-03-14T07:08:40;98730.97;;;20.00;48.33
73455;BME280;61690;51.824;6.306;2023-03-14T07:11:07;98733.72;;;19.74;47.83
73455;BME280;61690;51.824;6.306;2023-03-14T07:13:32;98734.25;;;19.51;48.12
73455;BME280;61690;51.824;6.306;2023-03-14T07:15:58;98737.84;;;19.42;47.98
73455;BME280;61690;51.824;6.306;2023-03-14T07:18:23;98743.91;;;19.34;48.57
73455;BME280;61690;51.824;6.306;2023-03-14T07:20:48;98737.81;;;19.76;48.43
73455;BME280;61690;51.824;6.306;2023-03-14T07:23:13;98740.97;;;19.88;47.99
73455;BME280;61690;51.824;6.306;2023-03-14T07:25:39;98743.63;;;19.88;48.13
73455;BME280;61690;51.824;6.306;2023-03-14T07:28:04;98739.00;;;19.82;48.36
73455;BME280;61690;51.824;6.306;2023-03-14T07:30:29;98749.19;;;19.77;48.38
73455;BME280;61690;51.824;6.306;2023-03-14T07:32:55;98752.16;;;19.74;48.74
73455;BME280;61690;51.824;6.306;2023-03-14T07:35:20;98753.81;;;19.75;48.53
73455;BME280;61690;51.824;6.306;2023-03-14T07:37:45;98754.81;;;19.74;48.94
73455;BME280;61690;51.824;6.306;2023-03-14T07:40:11;98761.38;;;19.70;48.97
73455;BME280;61690;51.824;6.306;2023-03-14T07:42:40;98764.00;;;19.70;49.13
73455;BME280;61690;51.824;6.306;2023-03-14T07:45:05;98777.19;;;19.70;49.13
73455;BME280;61690;51.824;6.306;2023-03-14T07:47:31;98772.06;;;19.68;49.24
73455;BME280;61690;51.824;6.306;2023-03-14T07:49:56;98775.25;;;19.72;49.08
73455;BME280;61690;51.824;6.306;2023-03-14T07:52:21;98783.16;;;19.72;49.39
73455;BME280;61690;51.824;6.306;2023-03-14T07:54:47;98785.66;;;19.73;49.21
73455;BME280;61690;51.824;6.306;2023-03-14T07:57:12;98781.13;;;19.66;49.71
73455;BME280;61690;51.824;6.306;2023-03-14T07:59:37;98778.16;;;19.69;49.40
73455;BME280;61690;51.824;6.306;2023-03-14T08:02:03;98782.09;;;19.65;49.92
73455;BME280;61690;51.824;6.306;2023-03-14T08:04:30;98782.91;;;19.65;50.17
73455;BME280;61690;51.824;6.306;2023-03-14T08:06:55;98786.75;;;19.71;49.57
73455;BME280;61690;51.824;6.306;2023-03-14T08:09:21;98807.31;;;20.02;48.84
73455;BME280;61690;51.824;6.306;2023-03-14T08:11:46;98844.84;;;20.22;48.55
73455;BME280;61690;51.824;6.306;2023-03-14T08:14:11;98852.78;;;20.38;48.15
73455;BME280;61690;51.824;6.306;2023-03-14T08:16:37;98860.91;;;20.53;47.93
73455;BME280;61690;51.824;6.306;2023-03-14T08:19:02;98868.25;;;20.67;47.46
73455;BME280;61690;51.824;6.306;2023-03-14T08:21:27;98877.81;;;20.76;47.44
73455;BME280;61690;51.824;6.306;2023-03-14T08:23:52;98881.94;;;20.87;47.22
73455;BME280;61690;51.824;6.306;2023-03-14T08:26:18;98898.66;;;20.96;46.90
73455;BME280;61690;51.824;6.306;2023-03-14T08:28:43;98901.44;;;21.03;46.81
73455;BME280;61690;51.824;6.306;2023-03-14T08:31:08;98913.19;;;21.08;46.95
73455;BME280;61690;51.824;6.306;2023-03-14T08:33:34;98917.47;;;21.18;46.70
73455;BME280;61690;51.824;6.306;2023-03-14T08:36:00;98924.59;;;21.25;46.51
73455;BME280;61690;51.824;6.306;2023-03-14T08:38:25;98927.56;;;21.06;46.81
73455;BME280;61690;51.824;6.306;2023-03-14T08:40:58;98938.44;;;20.94;47.80
73455;BME280;61690;51.824;6.306;2023-03-14T08:43:24;98952.78;;;20.84;47.69
73455;BME280;61690;51.824;6.306;2023-03-14T08:45:49;98958.38;;;20.72;48.30
73455;BME280;61690;51.824;6.306;2023-03-14T08:48:15;98968.13;;;20.64;48.64
73455;BME280;61690;51.824;6.306;2023-03-14T08:50:40;98973.84;;;20.59;48.67
73455;BME280;61690;51.824;6.306;2023-03-14T08:53:05;98983.72;;;20.57;48.92
73455;BME280;61690;51.824;6.306;2023-03-14T08:55:30;98995.75;;;20.51;48.79
73455;BME280;61690;51.824;6.306;2023-03-14T08:57:56;99004.03;;;20.48;48.92
73455;BME280;61690;51.824;6.306;2023-03-14T09:00:21;99010.47;;;20.54;48.96
73455;BME280;61690;51.824;6.306;2023-03-14T09:02:46;99024.97;;;20.50;48.98
73455;BME280;61690;51.824;6.306;2023-03-14T09:05:12;99024.47;;;20.46;48.93
73455;BME280;61690;51.824;6.306;2023-03-14T09:07:38;99027.53;;;20.33;49.48
73455;BME280;61690;51.824;6.306;2023-03-14T09:10:05;99039.06;;;20.32;49.72
73455;BME280;61690;51.824;6.306;2023-03-14T09:12:31;99045.00;;;20.26;49.86
73455;BME280;61690;51.824;6.306;2023-03-14T09:14:56;99063.84;;;20.31;49.65
73455;BME280;61690;51.824;6.306;2023-03-14T09:17:21;99081.19;;;20.34;49.79
73455;BME280;61690;51.824;6.306;2023-03-14T09:19:46;99089.84;;;20.18;48.67
73455;BME280;61690;51.824;6.306;2023-03-14T09:22:12;99101.34;;;20.17;49.56
73455;BME280;61690;51.824;6.306;2023-03-14T09:24:37;99112.97;;;20.24;49.46
73455;BME280;61690;51.824;6.306;2023-03-14T09:27:02;99127.84;;;20.07;49.30
73455;BME280;61690;51.824;6.306;2023-03-14T09:29:28;99137.66;;;20.15;49.57
73455;BME280;61690;51.824;6.306;2023-03-14T09:31:53;99155.53;;;20.03;49.86
73455;BME280;61690;51.824;6.306;2023-03-14T09:34:18;99170.56;;;20.03;49.62
73455;BME280;61690;51.824;6.306;2023-03-14T09:36:44;99191.44;;;19.96;49.50
73455;BME280;61690;51.824;6.306;2023-03-14T09:39:11;99207.19;;;20.06;49.82
73455;BME280;61690;51.824;6.306;2023-03-14T09:41:42;99216.72;;;19.98;49.79
73455;BME280;61690;51.824;6.306;2023-03-14T09:44:29;99242.50;;;20.05;49.62
73455;BME280;61690;51.824;6.306;2023-03-14T09:47:04;99262.53;;;19.97;49.65
73455;BME280;61690;51.824;6.306;2023-03-14T09:49:36;99273.69;;;19.91;49.86
73455;BME280;61690;51.824;6.306;2023-03-14T09:52:11;99281.25;;;20.04;49.70
73455;BME280;61690;51.824;6.306;2023-03-14T09:55:05;99293.09;;;20.36;48.78
73455;BME280;61690;51.824;6.306;2023-03-14T09:57:33;99302.09;;;20.61;48.57
73455;BME280;61690;51.824;6.306;2023-03-14T10:00:06;99303.06;;;20.78;48.08
73455;BME280;61690;51.824;6.306;2023-03-14T10:02:40;99328.09;;;20.92;47.79
73455;BME280;61690;51.824;6.306;2023-03-14T10:05:17;99331.06;;;20.89;47.95
73455;BME280;61690;51.824;6.306;2023-03-14T10:07:44;99342.34;;;20.73;48.07
73455;BME280;61690;51.824;6.306;2023-03-14T10:10:20;99347.59;;;20.55;48.58
73455;BME280;61690;51.824;6.306;2023-03-14T10:12:49;99360.34;;;20.42;48.69
73455;BME280;61690;51.824;6.306;2023-03-14T10:15:31;99367.66;;;20.30;49.32
73455;BME280;61690;51.824;6.306;2023-03-14T10:17:59;99383.25;;;20.23;49.52
73455;BME280;61690;51.824;6.306;2023-03-14T10:20:29;99384.50;;;20.19;49.63
73455;BME280;61690;51.824;6.306;2023-03-14T10:23:03;99400.81;;;20.14;49.98
73455;BME280;61690;51.824;6.306;2023-03-14T10:25:35;99407.75;;;20.15;50.00
73455;BME280;61690;51.824;6.306;2023-03-14T10:28:03;99410.53;;;20.14;50.34
73455;BME280;61690;51.824;6.306;2023-03-14T10:30:54;99429.16;;;20.12;49.59
73455;BME280;61690;51.824;6.306;2023-03-14T10:35:44;99466.94;;;20.13;49.48
73455;BME280;61690;51.824;6.306;2023-03-14T10:38:15;99476.72;;;20.03;50.04
73455;BME280;61690;51.824;6.306;2023-03-14T10:40:46;99491.72;;;20.02;49.96
73455;BME280;61690;51.824;6.306;2023-03-14T10:43:17;99504.06;;;20.02;49.68
73455;BME280;61690;51.824;6.306;2023-03-14T10:45:51;99514.81;;;20.00;50.09
73455;BME280;61690;51.824;6.306;2023-03-14T10:48:22;99523.97;;;19.96;50.39
73455;BME280;61690;51.824;6.306;2023-03-14T10:51:08;99535.06;;;20.00;50.52
73455;BME280;61690;51.824;6.306;2023-03-14T10:53:43;99546.75;;;19.97;50.16
73455;BME280;61690;51.824;6.306;2023-03-14T10:56:20;99555.63;;;19.96;50.51
73455;BME280;61690;51.824;6.306;2023-03-14T10:58:48;99563.97;;;19.91;50.48
73455;BME280;61690;51.824;6.306;2023-03-14T11:01:28;99573.72;;;19.91;50.33
73455;BME280;61690;51.824;6.306;2023-03-14T11:07:01;99599.25;;;19.90;50.91
73455;BME280;61690;51.824;6.306;2023-03-14T11:09:50;99601.38;;;19.87;50.69
73455;BME280;61690;51.824;6.306;2023-03-14T11:12:41;99612.59;;;19.89;50.87
73455;BME280;61690;51.824;6.306;2023-03-14T11:15:30;99618.16;;;19.86;50.93
73455;BME280;61690;51.824;6.306;2023-03-14T11:18:37;99628.44;;;19.89;50.63
73455;BME280;61690;51.824;6.306;2023-03-14T11:26:48;99691.34;;;19.84;50.80
73455;BME280;61690;51.824;6.306;2023-03-14T11:29:26;99693.84;;;19.85;50.92
73455;BME280;61690;51.824;6.306;2023-03-14T11:31:58;99694.56;;;19.87;51.04
73455;BME280;61690;51.824;6.306;2023-03-14T11:34:36;99704.53;;;19.93;50.51
73455;BME280;61690;51.824;6.306;2023-03-14T11:37:07;99718.00;;;19.90;50.50
73455;BME280;61690;51.824;6.306;2023-03-14T11:39:40;99714.28;;;19.83;50.54
73455;BME280;61690;51.824;6.306;2023-03-14T11:42:11;99727.72;;;19.80;50.60
73455;BME280;61690;51.824;6.306;2023-03-14T11:44:38;99730.38;;;19.80;50.81
73455;BME280;61690;51.824;6.306;2023-03-14T11:47:10;99733.00;;;19.80;50.67
73455;BME280;61690;51.824;6.306;2023-03-14T11:49:47;99748.28;;;19.76;50.91
73455;BME280;61690;51.824;6.306;2023-03-14T11:54:56;99758.38;;;19.71;50.89
73455;BME280;61690;51.824;6.306;2023-03-14T11:57:23;99759.25;;;19.72;50.65
73455;BME280;61690;51.824;6.306;2023-03-14T12:13:13;99816.56;;;19.70;50.55
73455;BME280;61690;51.824;6.306;2023-03-14T12:15:42;99818.19;;;19.61;50.49
73455;BME280;61690;51.824;6.306;2023-03-14T12:18:21;99824.84;;;19.65;49.87
73455;BME280;61690;51.824;6.306;2023-03-14T12:20:53;99829.94;;;19.78;49.56
73455;BME280;61690;51.824;6.306;2023-03-14T12:23:19;99832.25;;;19.71;49.22
73455;BME280;61690;51.824;6.306;2023-03-14T12:25:45;99840.56;;;19.67;49.87
73455;BME280;61690;51.824;6.306;2023-03-14T12:28:21;99850.41;;;19.65;49.84
73455;BME280;61690;51.824;6.306;2023-03-14T12:30:55;99847.06;;;19.63;49.90
73455;BME280;61690;51.824;6.306;2023-03-14T12:33:26;99859.44;;;19.62;50.16
73455;BME280;61690;51.824;6.306;2023-03-14T12:35:59;99873.03;;;19.67;50.00
73455;BME280;61690;51.824;6.306;2023-03-14T12:39:00;99878.47;;;19.66;50.39
73455;BME280;61690;51.824;6.306;2023-03-14T12:41:42;99882.31;;;19.62;48.92
73455;BME280;61690;51.824;6.306;2023-03-14T12:46:53;99889.16;;;19.64;50.22
73455;BME280;61690;51.824;6.306;2023-03-14T12:49:19;99906.06;;;19.62;50.06
73455;BME280;61690;51.824;6.306;2023-03-14T12:51:44;99903.59;;;19.60;50.58
73455;BME280;61690;51.824;6.306;2023-03-14T12:54:35;99905.00;;;19.64;50.42
73455;BME280;61690;51.824;6.306;2023-03-14T13:00:42;99922.19;;;19.58;50.69
73455;BME280;61690;51.824;6.306;2023-03-14T13:03:25;99931.75;;;19.59;50.30
73455;BME280;61690;51.824;6.306;2023-03-14T13:06:01;99933.31;;;19.62;50.24
73455;BME280;61690;51.824;6.306;2023-03-14T13:11:10;99953.44;;;19.63;50.71
73455;BME280;61690;51.824;6.306;2023-03-14T13:13:52;99958.81;;;19.62;50.53
73455;BME280;61690;51.824;6.306;2023-03-14T13:16:21;99964.66;;;19.76;50.10
73455;BME280;61690;51.824;6.306;2023-03-14T13:18:59;99972.47;;;19.67;50.12
73455;BME280;61690;51.824;6.306;2023-03-14T13:21:27;99988.94;;;19.59;50.27
73455;BME280;61690;51.824;6.306;2023-03-14T13:24:01;99989.78;;;19.59;50.36
73455;BME280;61690;51.824;6.306;2023-03-14T13:26:39;99993.28;;;19.60;50.40
73455;BME280;61690;51.824;6.306;2023-03-14T13:29:30;99997.97;;;19.56;50.69
73455;BME280;61690;51.824;6.306;2023-03-14T13:31:58;100018.56;;;19.63;50.58
73455;BME280;61690;51.824;6.306;2023-03-14T13:34:26;100024.59;;;19.53;50.20
73455;BME280;61690;51.824;6.306;2023-03-14T13:36:52;100025.81;;;19.49;49.53
73455;BME280;61690;51.824;6.306;2023-03-14T13:39:23;100032.78;;;19.50;49.84
73455;BME280;61690;51.824;6.306;2023-03-14T13:41:54;100044.03;;;19.52;50.04
73455;BME280;61690;51.824;6.306;2023-03-14T13:44:26;100039.59;;;19.53;49.76
73455;BME280;61690;51.824;6.306;2023-03-14T13:46:57;100049.31;;;19.52;50.01